sensor_id;sensor_type;location;lat;lon;timestamp;P1;durP1;ratioP1;P2;durP2;ratioP2
75297;SDS011;63896;45.990;18.688;2023-02-14T00:00:46;15.20;;;6.30;;
75297;SDS011;63896;45.990;18.688;2023-02-14T00:03:48;16.48;;;6.65;;
75297;SDS011;63896;45.990;18.688;2023-02-14T00:06:51;13.43;;;6.13;;
75297;SDS011;63896;45.990;18.688;2023-02-14T00:09:54;14.68;;;5.90;;
75297;SDS011;63896;45.990;18.688;2023-02-14T00:12:57;16.90;;;6.10;;
75297;SDS011;63896;45.990;18.688;2023-02-14T00:16:00;13.43;;;6.00;;
75297;SDS011;63896;45.990;18.688;2023-02-14T00:19:03;15.02;;;6.05;;
75297;SDS011;63896;45.990;18.688;2023-02-14T00:22:06;15.82;;;5.85;;
75297;SDS011;63896;45.990;18.688;2023-02-14T00:25:09;15.43;;;7.22;;
75297;SDS011;63896;45.990;18.688;2023-02-14T00:28:12;16.70;;;5.97;;
75297;SDS011;63896;45.990;18.688;2023-02-14T00:31:15;17.97;;;6.33;;
75297;SDS011;63896;45.990;18.688;2023-02-14T00:34:18;13.82;;;6.15;;
75297;SDS011;63896;45.990;18.688;2023-02-14T00:37:22;13.13;;;5.88;;
75297;SDS011;63896;45.990;18.688;2023-02-14T00:40:27;16.92;;;6.55;;
75297;SDS011;63896;45.990;18.688;2023-02-14T00:43:31;18.07;;;7.30;;
75297;SDS011;63896;45.990;18.688;2023-02-14T00:46:34;15.77;;;6.60;;
75297;SDS011;63896;45.990;18.688;2023-02-14T00:49:37;13.20;;;6.00;;
75297;SDS011;63896;45.990;18.688;2023-02-14T00:52:40;13.77;;;6.28;;
75297;SDS011;63896;45.990;18.688;2023-02-14T00:55:43;14.57;;;6.30;;
75297;SDS011;63896;45.990;18.688;2023-02-14T00:58:49;14.20;;;6.87;;
75297;SDS011;63896;45.990;18.688;2023-02-14T01:01:52;15.57;;;7.30;;
75297;SDS011;63896;45.990;18.688;2023-02-14T01:04:55;15.68;;;6.63;;
75297;SDS011;63896;45.990;18.688;2023-02-14T01:07:57;14.90;;;6.57;;
75297;SDS011;63896;45.990;18.688;2023-02-14T01:11:14;16.63;;;7.28;;
75297;SDS011;63896;45.990;18.688;2023-02-14T01:14:20;15.23;;;6.80;;
75297;SDS011;63896;45.990;18.688;2023-02-14T01:17:24;16.23;;;7.17;;
75297;SDS011;63896;45.990;18.688;2023-02-14T01:20:27;17.42;;;7.30;;
75297;SDS011;63896;45.990;18.688;2023-02-14T01:23:29;16.33;;;6.78;;
75297;SDS011;63896;45.990;18.688;2023-02-14T01:26:32;18.02;;;7.15;;
75297;SDS011;63896;45.990;18.688;2023-02-14T01:29:37;19.00;;;6.97;;
75297;SDS011;63896;45.990;18.688;2023-02-14T01:32:40;17.13;;;7.37;;
75297;SDS011;63896;45.990;18.688;2023-02-14T01:35:43;18.90;;;7.15;;
75297;SDS011;63896;45.990;18.688;2023-02-14T01:38:46;20.38;;;7.80;;
75297;SDS011;63896;45.990;18.688;2023-02-14T01:41:52;16.75;;;7.25;;
75297;SDS011;63896;45.990;18.688;2023-02-14T01:45:08;17.83;;;7.03;;
75297;SDS011;63896;45.990;18.688;2023-02-14T01:48:16;20.10;;;7.97;;
75297;SDS011;63896;45.990;18.688;2023-02-14T01:51:23;18.67;;;7.72;;
75297;SDS011;63896;45.990;18.688;2023-02-14T01:54:28;25.42;;;6.70;;
75297;SDS011;63896;45.990;18.688;2023-02-14T01:57:35;19.80;;;8.13;;
75297;SDS011;63896;45.990;18.688;2023-02-14T02:00:44;16.57;;;6.90;;
75297;SDS011;63896;45.990;18.688;2023-02-14T02:04:02;16.67;;;7.33;;
75297;SDS011;63896;45.990;18.688;2023-02-14T02:07:16;17.20;;;6.68;;
75297;SDS011;63896;45.990;18.688;2023-02-14T02:10:23;17.80;;;7.32;;
75297;SDS011;63896;45.990;18.688;2023-02-14T02:13:26;17.83;;;7.30;;
75297;SDS011;63896;45.990;18.688;2023-02-14T02:46:57;19.50;;;7.70;;
75297;SDS011;63896;45.990;18.688;2023-02-14T02:53:51;18.03;;;7.37;;
75297;SDS011;63896;45.990;18.688;2023-02-14T02:57:24;15.75;;;6.90;;
75297;SDS011;63896;45.990;18.688;2023-02-14T03:00:32;18.13;;;7.68;;
75297;SDS011;63896;45.990;18.688;2023-02-14T03:03:35;18.77;;;7.82;;
75297;SDS011;63896;45.990;18.688;2023-02-14T03:06:59;18.93;;;7.87;;
75297;SDS011;63896;45.990;18.688;2023-02-14T03:13:29;19.25;;;7.97;;
75297;SDS011;63896;45.990;18.688;2023-02-14T03:16:49;20.13;;;8.15;;
75297;SDS011;63896;45.990;18.688;2023-02-14T03:20:07;14.93;;;6.85;;
75297;SDS011;63896;45.990;18.688;2023-02-14T03:23:26;16.67;;;7.40;;
75297;SDS011;63896;45.990;18.688;2023-02-14T03:30:23;15.30;;;7.55;;
75297;SDS011;63896;45.990;18.688;2023-02-14T03:37:05;15.77;;;7.15;;
75297;SDS011;63896;45.990;18.688;2023-02-14T03:40:26;17.27;;;7.43;;
75297;SDS011;63896;45.990;18.688;2023-02-14T03:43:33;19.27;;;8.00;;
75297;SDS011;63896;45.990;18.688;2023-02-14T03:46:50;14.68;;;7.45;;
75297;SDS011;63896;45.990;18.688;2023-02-14T03:49:59;16.55;;;7.82;;
75297;SDS011;63896;45.990;18.688;2023-02-14T03:53:07;18.83;;;8.13;;
75297;SDS011;63896;45.990;18.688;2023-02-14T03:59:27;18.07;;;7.83;;
75297;SDS011;63896;45.990;18.688;2023-02-14T04:05:42;17.38;;;7.30;;
75297;SDS011;63896;45.990;18.688;2023-02-14T04:08:53;20.38;;;8.35;;
75297;SDS011;63896;45.990;18.688;2023-02-14T04:11:56;19.50;;;7.53;;
75297;SDS011;63896;45.990;18.688;2023-02-14T04:15:00;18.50;;;7.10;;
75297;SDS011;63896;45.990;18.688;2023-02-14T04:18:05;17.15;;;7.47;;
75297;SDS011;63896;45.990;18.688;2023-02-14T04:21:26;17.23;;;7.97;;
75297;SDS011;63896;45.990;18.688;2023-02-14T04:24:29;18.85;;;8.25;;
75297;SDS011;63896;45.990;18.688;2023-02-14T04:27:31;17.10;;;7.80;;
75297;SDS011;63896;45.990;18.688;2023-02-14T04:30:34;17.53;;;8.23;;
75297;SDS011;63896;45.990;18.688;2023-02-14T04:33:37;18.48;;;7.70;;
75297;SDS011;63896;45.990;18.688;2023-02-14T04:36:40;18.65;;;7.57;;
75297;SDS011;63896;45.990;18.688;2023-02-14T04:39:43;21.40;;;8.52;;
75297;SDS011;63896;45.990;18.688;2023-02-14T04:42:46;17.63;;;8.03;;
75297;SDS011;63896;45.990;18.688;2023-02-14T04:45:49;18.07;;;8.00;;
75297;SDS011;63896;45.990;18.688;2023-02-14T04:48:52;25.67;;;8.65;;
75297;SDS011;63896;45.990;18.688;2023-02-14T04:51:55;20.63;;;7.60;;
75297;SDS011;63896;45.990;18.688;2023-02-14T04:54:58;23.05;;;9.50;;
75297;SDS011;63896;45.990;18.688;2023-02-14T04:58:01;21.33;;;7.90;;
75297;SDS011;63896;45.990;18.688;2023-02-14T05:01:04;19.87;;;7.90;;
75297;SDS011;63896;45.990;18.688;2023-02-14T05:04:07;19.40;;;7.93;;
75297;SDS011;63896;45.990;18.688;2023-02-14T05:07:10;20.65;;;8.50;;
75297;SDS011;63896;45.990;18.688;2023-02-14T05:10:13;19.77;;;8.60;;
75297;SDS011;63896;45.990;18.688;2023-02-14T05:13:16;19.17;;;8.40;;
75297;SDS011;63896;45.990;18.688;2023-02-14T05:16:19;18.93;;;8.37;;
75297;SDS011;63896;45.990;18.688;2023-02-14T05:19:22;19.42;;;8.38;;
75297;SDS011;63896;45.990;18.688;2023-02-14T05:22:26;18.38;;;8.20;;
75297;SDS011;63896;45.990;18.688;2023-02-14T05:25:29;19.50;;;7.85;;
75297;SDS011;63896;45.990;18.688;2023-02-14T05:28:33;18.00;;;8.80;;
75297;SDS011;63896;45.990;18.688;2023-02-14T05:31:36;18.23;;;7.87;;
75297;SDS011;63896;45.990;18.688;2023-02-14T05:34:39;20.95;;;8.70;;
75297;SDS011;63896;45.990;18.688;2023-02-14T05:37:42;17.20;;;8.40;;
75297;SDS011;63896;45.990;18.688;2023-02-14T05:40:45;19.83;;;9.18;;
75297;SDS011;63896;45.990;18.688;2023-02-14T05:43:47;21.67;;;8.47;;
75297;SDS011;63896;45.990;18.688;2023-02-14T05:46:50;17.30;;;8.00;;
75297;SDS011;63896;45.990;18.688;2023-02-14T05:49:53;21.27;;;9.07;;
75297;SDS011;63896;45.990;18.688;2023-02-14T05:52:56;17.90;;;8.55;;
75297;SDS011;63896;45.990;18.688;2023-02-14T05:55:59;18.20;;;8.45;;
75297;SDS011;63896;45.990;18.688;2023-02-14T05:59:03;19.73;;;9.07;;
75297;SDS011;63896;45.990;18.688;2023-02-14T06:02:06;17.87;;;9.03;;
75297;SDS011;63896;45.990;18.688;2023-02-14T06:05:09;18.42;;;8.07;;
75297;SDS011;63896;45.990;18.688;2023-02-14T06:08:12;17.65;;;7.68;;
75297;SDS011;63896;45.990;18.688;2023-02-14T06:11:15;21.15;;;8.75;;
75297;SDS011;63896;45.990;18.688;2023-02-14T06:14:17;20.67;;;7.67;;
75297;SDS011;63896;45.990;18.688;2023-02-14T06:17:20;19.87;;;8.30;;
75297;SDS011;63896;45.990;18.688;2023-02-14T06:20:23;20.67;;;8.90;;
75297;SDS011;63896;45.990;18.688;2023-02-14T06:23:26;22.35;;;9.02;;
75297;SDS011;63896;45.990;18.688;2023-02-14T06:26:29;21.75;;;8.77;;
75297;SDS011;63896;45.990;18.688;2023-02-14T06:29:32;17.60;;;8.03;;
75297;SDS011;63896;45.990;18.688;2023-02-14T06:32:35;23.63;;;10.10;;
75297;SDS011;63896;45.990;18.688;2023-02-14T06:35:38;24.88;;;10.88;;
75297;SDS011;63896;45.990;18.688;2023-02-14T06:38:41;20.10;;;9.55;;
75297;SDS011;63896;45.990;18.688;2023-02-14T06:41:48;18.27;;;8.70;;
75297;SDS011;63896;45.990;18.688;2023-02-14T06:44:50;19.90;;;8.57;;
75297;SDS011;63896;45.990;18.688;2023-02-14T06:47:53;18.93;;;9.00;;
75297;SDS011;63896;45.990;18.688;2023-02-14T06:50:56;20.65;;;8.70;;
75297;SDS011;63896;45.990;18.688;2023-02-14T06:54:00;25.65;;;11.45;;
75297;SDS011;63896;45.990;18.688;2023-02-14T06:57:03;23.27;;;9.13;;
75297;SDS011;63896;45.990;18.688;2023-02-14T07:00:06;31.13;;;10.53;;
75297;SDS011;63896;45.990;18.688;2023-02-14T07:03:10;23.60;;;10.13;;
75297;SDS011;63896;45.990;18.688;2023-02-14T07:06:13;23.15;;;9.77;;
75297;SDS011;63896;45.990;18.688;2023-02-14T07:09:16;22.65;;;9.77;;
75297;SDS011;63896;45.990;18.688;2023-02-14T07:12:22;20.85;;;9.02;;
75297;SDS011;63896;45.990;18.688;2023-02-14T07:15:25;19.17;;;8.70;;
75297;SDS011;63896;45.990;18.688;2023-02-14T07:18:29;18.87;;;8.57;;
75297;SDS011;63896;45.990;18.688;2023-02-14T07:21:34;20.17;;;8.75;;
75297;SDS011;63896;45.990;18.688;2023-02-14T07:24:39;19.80;;;9.07;;
75297;SDS011;63896;45.990;18.688;2023-02-14T07:27:42;20.00;;;9.45;;
75297;SDS011;63896;45.990;18.688;2023-02-14T07:30:45;21.03;;;10.17;;
75297;SDS011;63896;45.990;18.688;2023-02-14T07:33:49;23.77;;;10.43;;
75297;SDS011;63896;45.990;18.688;2023-02-14T07:36:53;24.38;;;10.43;;
75297;SDS011;63896;45.990;18.688;2023-02-14T07:39:57;25.52;;;11.18;;
75297;SDS011;63896;45.990;18.688;2023-02-14T07:43:01;24.80;;;11.40;;
75297;SDS011;63896;45.990;18.688;2023-02-14T07:46:04;23.60;;;10.63;;
75297;SDS011;63896;45.990;18.688;2023-02-14T07:49:08;33.40;;;12.50;;
75297;SDS011;63896;45.990;18.688;2023-02-14T07:52:11;33.33;;;11.18;;
75297;SDS011;63896;45.990;18.688;2023-02-14T07:55:14;23.13;;;10.32;;
75297;SDS011;63896;45.990;18.688;2023-02-14T07:58:17;22.83;;;10.52;;
75297;SDS011;63896;45.990;18.688;2023-02-14T08:01:29;22.83;;;9.90;;
75297;SDS011;63896;45.990;18.688;2023-02-14T08:04:32;25.80;;;10.47;;
75297;SDS011;63896;45.990;18.688;2023-02-14T08:07:36;30.65;;;11.98;;
75297;SDS011;63896;45.990;18.688;2023-02-14T08:10:39;26.88;;;10.23;;
75297;SDS011;63896;45.990;18.688;2023-02-14T08:13:41;25.75;;;11.10;;
75297;SDS011;63896;45.990;18.688;2023-02-14T08:16:46;18.67;;;9.17;;
75297;SDS011;63896;45.990;18.688;2023-02-14T08:19:49;23.43;;;9.20;;
75297;SDS011;63896;45.990;18.688;2023-02-14T08:22:52;22.23;;;9.27;;
75297;SDS011;63896;45.990;18.688;2023-02-14T08:25:55;21.75;;;10.73;;
75297;SDS011;63896;45.990;18.688;2023-02-14T08:29:00;22.83;;;11.43;;
75297;SDS011;63896;45.990;18.688;2023-02-14T08:32:04;26.97;;;12.03;;
75297;SDS011;63896;45.990;18.688;2023-02-14T08:35:08;30.20;;;12.93;;
75297;SDS011;63896;45.990;18.688;2023-02-14T08:38:11;28.40;;;11.85;;
75297;SDS011;63896;45.990;18.688;2023-02-14T08:41:15;32.63;;;14.45;;
75297;SDS011;63896;45.990;18.688;2023-02-14T08:44:19;28.77;;;13.55;;
75297;SDS011;63896;45.990;18.688;2023-02-14T08:47:22;27.93;;;13.07;;
75297;SDS011;63896;45.990;18.688;2023-02-14T08:50:25;19.57;;;10.13;;
75297;SDS011;63896;45.990;18.688;2023-02-14T08:53:28;19.27;;;10.02;;
75297;SDS011;63896;45.990;18.688;2023-02-14T08:56:31;20.85;;;9.80;;
75297;SDS011;63896;45.990;18.688;2023-02-14T08:59:34;19.48;;;9.40;;
75297;SDS011;63896;45.990;18.688;2023-02-14T09:02:37;21.40;;;9.27;;
75297;SDS011;63896;45.990;18.688;2023-02-14T09:05:40;22.00;;;9.77;;
75297;SDS011;63896;45.990;18.688;2023-02-14T09:08:43;27.80;;;12.57;;
75297;SDS011;63896;45.990;18.688;2023-02-14T09:11:46;22.38;;;10.95;;
75297;SDS011;63896;45.990;18.688;2023-02-14T09:14:50;28.88;;;12.80;;
75297;SDS011;63896;45.990;18.688;2023-02-14T09:17:53;28.00;;;13.37;;
75297;SDS011;63896;45.990;18.688;2023-02-14T09:20:55;21.53;;;10.37;;
75297;SDS011;63896;45.990;18.688;2023-02-14T09:23:59;18.88;;;9.23;;
75297;SDS011;63896;45.990;18.688;2023-02-14T09:27:05;19.13;;;9.02;;
75297;SDS011;63896;45.990;18.688;2023-02-14T09:30:09;22.75;;;11.40;;
75297;SDS011;63896;45.990;18.688;2023-02-14T09:33:12;20.87;;;10.67;;
75297;SDS011;63896;45.990;18.688;2023-02-14T09:36:15;19.87;;;9.97;;
75297;SDS011;63896;45.990;18.688;2023-02-14T09:39:21;22.75;;;12.02;;
75297;SDS011;63896;45.990;18.688;2023-02-14T09:42:39;21.65;;;11.23;;
75297;SDS011;63896;45.990;18.688;2023-02-14T09:45:51;21.58;;;11.38;;
75297;SDS011;63896;45.990;18.688;2023-02-14T09:48:57;23.53;;;10.67;;
75297;SDS011;63896;45.990;18.688;2023-02-14T09:52:03;22.90;;;10.70;;
75297;SDS011;63896;45.990;18.688;2023-02-14T09:55:12;45.88;;;22.15;;
75297;SDS011;63896;45.990;18.688;2023-02-14T09:58:19;37.60;;;16.92;;
75297;SDS011;63896;45.990;18.688;2023-02-14T10:05:21;23.30;;;10.73;;
75297;SDS011;63896;45.990;18.688;2023-02-14T10:08:45;21.77;;;9.83;;
75297;SDS011;63896;45.990;18.688;2023-02-14T10:12:10;26.73;;;12.00;;
75297;SDS011;63896;45.990;18.688;2023-02-14T10:15:26;20.92;;;9.07;;
75297;SDS011;63896;45.990;18.688;2023-02-14T10:21:54;22.17;;;10.80;;
75297;SDS011;63896;45.990;18.688;2023-02-14T10:25:02;23.03;;;10.30;;
75297;SDS011;63896;45.990;18.688;2023-02-14T10:28:24;20.10;;;10.00;;
75297;SDS011;63896;45.990;18.688;2023-02-14T10:32:01;16.10;;;8.45;;
75297;SDS011;63896;45.990;18.688;2023-02-14T10:35:39;15.95;;;7.97;;
75297;SDS011;63896;45.990;18.688;2023-02-14T10:45:46;25.15;;;9.88;;
75297;SDS011;63896;45.990;18.688;2023-02-14T10:52:32;18.40;;;9.00;;
75297;SDS011;63896;45.990;18.688;2023-02-14T10:55:49;16.77;;;8.30;;
75297;SDS011;63896;45.990;18.688;2023-02-14T10:58:56;18.73;;;9.03;;
75297;SDS011;63896;45.990;18.688;2023-02-14T11:02:04;20.80;;;8.63;;
75297;SDS011;63896;45.990;18.688;2023-02-14T11:05:22;21.23;;;9.02;;
75297;SDS011;63896;45.990;18.688;2023-02-14T11:08:46;17.15;;;8.23;;
75297;SDS011;63896;45.990;18.688;2023-02-14T11:11:53;18.02;;;8.18;;
75297;SDS011;63896;45.990;18.688;2023-02-14T11:18:20;20.65;;;9.30;;
75297;SDS011;63896;45.990;18.688;2023-02-14T11:21:25;20.95;;;9.23;;
75297;SDS011;63896;45.990;18.688;2023-02-14T11:24:39;20.15;;;10.00;;
75297;SDS011;63896;45.990;18.688;2023-02-14T11:27:47;18.77;;;8.57;;
75297;SDS011;63896;45.990;18.688;2023-02-14T11:30:53;19.50;;;10.47;;
75297;SDS011;63896;45.990;18.688;2023-02-14T11:33:56;19.25;;;10.80;;
75297;SDS011;63896;45.990;18.688;2023-02-14T11:37:00;22.45;;;11.15;;
75297;SDS011;63896;45.990;18.688;2023-02-14T11:40:05;21.50;;;10.35;;
75297;SDS011;63896;45.990;18.688;2023-02-14T11:49:27;16.45;;;8.15;;
75297;SDS011;63896;45.990;18.688;2023-02-14T11:52:34;18.85;;;9.13;;
75297;SDS011;63896;45.990;18.688;2023-02-14T11:55:56;17.00;;;8.95;;
75297;SDS011;63896;45.990;18.688;2023-02-14T11:59:02;20.13;;;8.68;;
75297;SDS011;63896;45.990;18.688;2023-02-14T12:02:24;20.30;;;10.23;;
75297;SDS011;63896;45.990;18.688;2023-02-14T12:05:44;20.63;;;9.98;;
75297;SDS011;63896;45.990;18.688;2023-02-14T12:08:53;15.90;;;8.25;;
75297;SDS011;63896;45.990;18.688;2023-02-14T12:12:17;18.85;;;8.32;;
75297;SDS011;63896;45.990;18.688;2023-02-14T12:15:26;16.77;;;8.93;;
75297;SDS011;63896;45.990;18.688;2023-02-14T12:22:28;14.77;;;7.00;;
75297;SDS011;63896;45.990;18.688;2023-02-14T12:25:39;14.75;;;8.02;;
75297;SDS011;63896;45.990;18.688;2023-02-14T12:28:57;28.08;;;8.75;;
75297;SDS011;63896;45.990;18.688;2023-02-14T12:32:01;14.23;;;7.77;;
75297;SDS011;63896;45.990;18.688;2023-02-14T12:38:54;19.70;;;8.77;;
75297;SDS011;63896;45.990;18.688;2023-02-14T12:45:27;32.13;;;9.50;;
75297;SDS011;63896;45.990;18.688;2023-02-14T12:59:15;32.33;;;14.68;;
75297;SDS011;63896;45.990;18.688;2023-02-14T13:06:03;19.08;;;9.55;;
75297;SDS011;63896;45.990;18.688;2023-02-14T13:19:12;18.45;;;9.60;;
75297;SDS011;63896;45.990;18.688;2023-02-14T13:22:39;23.37;;;9.73;;
75297;SDS011;63896;45.990;18.688;2023-02-14T13:25:47;22.10;;;10.60;;
75297;SDS011;63896;45.990;18.688;2023-02-14T13:32:08;18.63;;;9.30;;
75297;SDS011;63896;45.990;18.688;2023-02-14T13:35:16;21.20;;;9.35;;
75297;SDS011;63896;45.990;18.688;2023-02-14T13:38:21;21.07;;;9.40;;
75297;SDS011;63896;45.990;18.688;2023-02-14T13:41:26;19.93;;;9.10;;
75297;SDS011;63896;45.990;18.688;2023-02-14T13:47:44;17.30;;;8.70;;
75297;SDS011;63896;45.990;18.688;2023-02-14T13:50:49;20.25;;;10.45;;
75297;SDS011;63896;45.990;18.688;2023-02-14T13:53:53;20.57;;;9.93;;
75297;SDS011;63896;45.990;18.688;2023-02-14T13:56:57;22.57;;;9.23;;
75297;SDS011;63896;45.990;18.688;2023-02-14T14:06:31;20.30;;;9.13;;
75297;SDS011;63896;45.990;18.688;2023-02-14T14:10:04;19.13;;;9.35;;
75297;SDS011;63896;45.990;18.688;2023-02-14T14:13:07;17.10;;;9.73;;
75297;SDS011;63896;45.990;18.688;2023-02-14T14:22:28;21.80;;;9.88;;
75297;SDS011;63896;45.990;18.688;2023-02-14T14:25:36;22.10;;;9.57;;
75297;SDS011;63896;45.990;18.688;2023-02-14T14:28:44;22.13;;;10.67;;
75297;SDS011;63896;45.990;18.688;2023-02-14T14:31:47;23.13;;;10.55;;
75297;SDS011;63896;45.990;18.688;2023-02-14T14:34:58;20.10;;;10.20;;
75297;SDS011;63896;45.990;18.688;2023-02-14T14:38:02;21.75;;;10.00;;
75297;SDS011;63896;45.990;18.688;2023-02-14T14:41:05;29.02;;;12.23;;
75297;SDS011;63896;45.990;18.688;2023-02-14T14:44:08;25.33;;;11.43;;
75297;SDS011;63896;45.990;18.688;2023-02-14T14:47:14;21.50;;;10.20;;
75297;SDS011;63896;45.990;18.688;2023-02-14T14:50:22;21.38;;;10.30;;
75297;SDS011;63896;45.990;18.688;2023-02-14T14:53:28;20.83;;;10.00;;
75297;SDS011;63896;45.990;18.688;2023-02-14T14:56:50;21.33;;;9.80;;
75297;SDS011;63896;45.990;18.688;2023-02-14T15:03:30;22.50;;;11.55;;
75297;SDS011;63896;45.990;18.688;2023-02-14T15:06:33;20.73;;;10.48;;
75297;SDS011;63896;45.990;18.688;2023-02-14T15:09:36;22.67;;;10.70;;
75297;SDS011;63896;45.990;18.688;2023-02-14T15:12:39;27.70;;;11.77;;
75297;SDS011;63896;45.990;18.688;2023-02-14T15:16:00;21.53;;;9.77;;
75297;SDS011;63896;45.990;18.688;2023-02-14T15:19:09;22.38;;;11.35;;
75297;SDS011;63896;45.990;18.688;2023-02-14T15:25:35;24.92;;;11.10;;
75297;SDS011;63896;45.990;18.688;2023-02-14T15:28:39;28.80;;;13.23;;
75297;SDS011;63896;45.990;18.688;2023-02-14T15:31:42;28.33;;;13.00;;
75297;SDS011;63896;45.990;18.688;2023-02-14T15:34:46;25.00;;;12.80;;
75297;SDS011;63896;45.990;18.688;2023-02-14T15:37:50;23.80;;;12.32;;
75297;SDS011;63896;45.990;18.688;2023-02-14T15:40:54;25.13;;;12.23;;
75297;SDS011;63896;45.990;18.688;2023-02-14T15:43:58;25.60;;;12.30;;
75297;SDS011;63896;45.990;18.688;2023-02-14T15:47:01;26.70;;;13.30;;
75297;SDS011;63896;45.990;18.688;2023-02-14T15:50:20;29.27;;;12.75;;
75297;SDS011;63896;45.990;18.688;2023-02-14T15:53:41;32.33;;;14.35;;
75297;SDS011;63896;45.990;18.688;2023-02-14T15:56:48;34.70;;;15.40;;
75297;SDS011;63896;45.990;18.688;2023-02-14T15:59:52;32.37;;;15.33;;
75297;SDS011;63896;45.990;18.688;2023-02-14T16:03:00;41.90;;;16.93;;
75297;SDS011;63896;45.990;18.688;2023-02-14T16:06:15;38.63;;;15.38;;
75297;SDS011;63896;45.990;18.688;2023-02-14T16:09:32;34.30;;;15.30;;
75297;SDS011;63896;45.990;18.688;2023-02-14T16:12:36;31.17;;;15.40;;
75297;SDS011;63896;45.990;18.688;2023-02-14T16:15:58;26.30;;;13.60;;
75297;SDS011;63896;45.990;18.688;2023-02-14T16:19:09;28.47;;;13.40;;
75297;SDS011;63896;45.990;18.688;2023-02-14T16:22:35;31.73;;;15.38;;
75297;SDS011;63896;45.990;18.688;2023-02-14T16:25:39;32.13;;;15.48;;
75297;SDS011;63896;45.990;18.688;2023-02-14T16:28:42;36.72;;;17.45;;
75297;SDS011;63896;45.990;18.688;2023-02-14T16:31:46;37.80;;;18.47;;
75297;SDS011;63896;45.990;18.688;2023-02-14T16:35:15;34.60;;;17.10;;
75297;SDS011;63896;45.990;18.688;2023-02-14T16:38:21;33.65;;;16.60;;
75297;SDS011;63896;45.990;18.688;2023-02-14T16:41:25;34.58;;;17.00;;
75297;SDS011;63896;45.990;18.688;2023-02-14T16:44:30;34.65;;;16.63;;
75297;SDS011;63896;45.990;18.688;2023-02-14T16:47:33;36.87;;;17.87;;
75297;SDS011;63896;45.990;18.688;2023-02-14T16:50:37;37.10;;;18.50;;
75297;SDS011;63896;45.990;18.688;2023-02-14T16:53:41;36.33;;;17.15;;
75297;SDS011;63896;45.990;18.688;2023-02-14T16:56:57;38.30;;;17.40;;
75297;SDS011;63896;45.990;18.688;2023-02-14T17:00:05;33.47;;;16.60;;
75297;SDS011;63896;45.990;18.688;2023-02-14T17:03:08;31.60;;;15.80;;
75297;SDS011;63896;45.990;18.688;2023-02-14T17:06:14;33.67;;;16.07;;
75297;SDS011;63896;45.990;18.688;2023-02-14T17:09:26;34.40;;;17.40;;
75297;SDS011;63896;45.990;18.688;2023-02-14T17:12:35;45.03;;;20.45;;
75297;SDS011;63896;45.990;18.688;2023-02-14T17:15:42;44.50;;;19.95;;
75297;SDS011;63896;45.990;18.688;2023-02-14T17:18:47;42.27;;;18.83;;
75297;SDS011;63896;45.990;18.688;2023-02-14T17:21:55;40.53;;;18.73;;
75297;SDS011;63896;45.990;18.688;2023-02-14T17:24:59;48.92;;;22.13;;
75297;SDS011;63896;45.990;18.688;2023-02-14T17:28:04;37.25;;;17.70;;
75297;SDS011;63896;45.990;18.688;2023-02-14T17:31:07;35.72;;;17.42;;
75297;SDS011;63896;45.990;18.688;2023-02-14T17:34:10;36.23;;;16.47;;
75297;SDS011;63896;45.990;18.688;2023-02-14T17:37:16;38.83;;;18.60;;
75297;SDS011;63896;45.990;18.688;2023-02-14T17:40:20;40.08;;;19.27;;
75297;SDS011;63896;45.990;18.688;2023-02-14T17:43:23;38.50;;;17.60;;
75297;SDS011;63896;45.990;18.688;2023-02-14T17:46:27;44.85;;;19.40;;
75297;SDS011;63896;45.990;18.688;2023-02-14T17:49:31;48.20;;;21.47;;
75297;SDS011;63896;45.990;18.688;2023-02-14T17:52:34;51.03;;;21.63;;
75297;SDS011;63896;45.990;18.688;2023-02-14T17:55:37;42.13;;;19.95;;
75297;SDS011;63896;45.990;18.688;2023-02-14T17:58:40;37.75;;;18.25;;
75297;SDS011;63896;45.990;18.688;2023-02-14T18:01:43;40.72;;;20.45;;
75297;SDS011;63896;45.990;18.688;2023-02-14T18:04:46;40.47;;;19.50;;
75297;SDS011;63896;45.990;18.688;2023-02-14T18:07:50;38.30;;;18.33;;
75297;SDS011;63896;45.990;18.688;2023-02-14T18:10:54;40.72;;;17.60;;
75297;SDS011;63896;45.990;18.688;2023-02-14T18:13:57;37.03;;;17.00;;
75297;SDS011;63896;45.990;18.688;2023-02-14T18:17:01;37.28;;;17.70;;
75297;SDS011;63896;45.990;18.688;2023-02-14T18:20:04;43.50;;;18.60;;
75297;SDS011;63896;45.990;18.688;2023-02-14T18:23:08;44.10;;;19.60;;
75297;SDS011;63896;45.990;18.688;2023-02-14T18:26:12;37.75;;;17.70;;
75297;SDS011;63896;45.990;18.688;2023-02-14T18:29:16;39.75;;;17.27;;
75297;SDS011;63896;45.990;18.688;2023-02-14T18:32:20;37.10;;;18.35;;
75297;SDS011;63896;45.990;18.688;2023-02-14T18:35:23;32.30;;;16.30;;
75297;SDS011;63896;45.990;18.688;2023-02-14T18:38:26;30.70;;;15.27;;
75297;SDS011;63896;45.990;18.688;2023-02-14T18:41:29;34.40;;;16.10;;
75297;SDS011;63896;45.990;18.688;2023-02-14T18:44:32;38.15;;;16.77;;
75297;SDS011;63896;45.990;18.688;2023-02-14T18:47:39;32.55;;;16.23;;
75297;SDS011;63896;45.990;18.688;2023-02-14T18:50:42;36.27;;;16.67;;
75297;SDS011;63896;45.990;18.688;2023-02-14T18:53:45;35.77;;;17.70;;
75297;SDS011;63896;45.990;18.688;2023-02-14T18:56:49;41.42;;;19.58;;
75297;SDS011;63896;45.990;18.688;2023-02-14T18:59:52;38.60;;;19.17;;
75297;SDS011;63896;45.990;18.688;2023-02-14T19:02:55;36.17;;;17.50;;
75297;SDS011;63896;45.990;18.688;2023-02-14T19:05:58;37.10;;;16.97;;
75297;SDS011;63896;45.990;18.688;2023-02-14T19:09:02;34.90;;;16.80;;
75297;SDS011;63896;45.990;18.688;2023-02-14T19:12:11;40.30;;;18.65;;
75297;SDS011;63896;45.990;18.688;2023-02-14T19:15:14;45.35;;;19.55;;
75297;SDS011;63896;45.990;18.688;2023-02-14T19:18:17;46.67;;;19.70;;
75297;SDS011;63896;45.990;18.688;2023-02-14T19:21:23;46.77;;;19.37;;
75297;SDS011;63896;45.990;18.688;2023-02-14T19:24:27;45.97;;;21.53;;
75297;SDS011;63896;45.990;18.688;2023-02-14T19:27:32;45.47;;;20.50;;
75297;SDS011;63896;45.990;18.688;2023-02-14T19:30:36;46.83;;;21.75;;
75297;SDS011;63896;45.990;18.688;2023-02-14T19:33:41;49.97;;;22.70;;
75297;SDS011;63896;45.990;18.688;2023-02-14T19:36:45;55.37;;;22.63;;
75297;SDS011;63896;45.990;18.688;2023-02-14T19:39:50;53.20;;;23.67;;
75297;SDS011;63896;45.990;18.688;2023-02-14T19:42:53;57.13;;;24.25;;
75297;SDS011;63896;45.990;18.688;2023-02-14T19:45:57;59.28;;;26.10;;
75297;SDS011;63896;45.990;18.688;2023-02-14T19:49:01;73.38;;;30.98;;
75297;SDS011;63896;45.990;18.688;2023-02-14T19:52:11;69.23;;;30.67;;
75297;SDS011;63896;45.990;18.688;2023-02-14T19:55:27;67.30;;;27.90;;
75297;SDS011;63896;45.990;18.688;2023-02-14T19:58:30;54.78;;;27.17;;
75297;SDS011;63896;45.990;18.688;2023-02-14T20:04:44;50.28;;;22.30;;
75297;SDS011;63896;45.990;18.688;2023-02-14T20:07:47;51.53;;;21.90;;
75297;SDS011;63896;45.990;18.688;2023-02-14T20:10:53;51.60;;;21.67;;
75297;SDS011;63896;45.990;18.688;2023-02-14T20:13:56;47.53;;;21.45;;
75297;SDS011;63896;45.990;18.688;2023-02-14T20:17:00;48.97;;;20.73;;
75297;SDS011;63896;45.990;18.688;2023-02-14T20:20:05;46.55;;;20.10;;
75297;SDS011;63896;45.990;18.688;2023-02-14T20:23:10;52.60;;;21.90;;
75297;SDS011;63896;45.990;18.688;2023-02-14T20:26:13;63.17;;;25.07;;